sensor_id;sensor_type;location;lat;lon;timestamp;P1;durP1;ratioP1;P2;durP2;ratioP2
39442;SDS011;25147;52.142;9.960;2023-03-26T00:00:47;7.50;;;3.55;;
39442;SDS011;25147;52.142;9.960;2023-03-26T00:03:20;7.50;;;3.47;;
39442;SDS011;25147;52.142;9.960;2023-03-26T00:05:48;9.30;;;3.33;;
39442;SDS011;25147;52.142;9.960;2023-03-26T00:08:27;6.72;;;3.70;;
39442;SDS011;25147;52.142;9.960;2023-03-26T00:10:53;7.88;;;3.60;;
39442;SDS011;25147;52.142;9.960;2023-03-26T00:13:20;10.75;;;3.95;;
39442;SDS011;25147;52.142;9.960;2023-03-26T00:15:46;8.07;;;3.45;;
39442;SDS011;25147;52.142;9.960;2023-03-26T00:18:14;8.23;;;3.65;;
39442;SDS011;25147;52.142;9.960;2023-03-26T00:20:44;5.93;;;3.97;;
39442;SDS011;25147;52.142;9.960;2023-03-26T00:23:12;6.78;;;3.80;;
39442;SDS011;25147;52.142;9.960;2023-03-26T00:25:39;4.97;;;3.65;;
39442;SDS011;25147;52.142;9.960;2023-03-26T00:28:07;6.35;;;4.10;;
39442;SDS011;25147;52.142;9.960;2023-03-26T00:30:34;5.78;;;3.80;;
39442;SDS011;25147;52.142;9.960;2023-03-26T00:33:01;6.60;;;3.53;;
39442;SDS011;25147;52.142;9.960;2023-03-26T00:35:27;5.45;;;3.85;;
39442;SDS011;25147;52.142;9.960;2023-03-26T00:37:54;7.05;;;3.97;;
39442;SDS011;25147;52.142;9.960;2023-03-26T00:40:28;6.43;;;3.70;;
39442;SDS011;25147;52.142;9.960;2023-03-26T00:42:56;7.57;;;3.83;;
39442;SDS011;25147;52.142;9.960;2023-03-26T00:45:22;8.02;;;3.85;;
39442;SDS011;25147;52.142;9.960;2023-03-26T00:47:48;5.25;;;3.92;;
39442;SDS011;25147;52.142;9.960;2023-03-26T00:50:15;9.15;;;4.00;;
39442;SDS011;25147;52.142;9.960;2023-03-26T00:52:42;6.05;;;3.90;;
39442;SDS011;25147;52.142;9.960;2023-03-26T00:55:10;8.20;;;3.83;;
39442;SDS011;25147;52.142;9.960;2023-03-26T00:57:38;6.70;;;3.67;;
39442;SDS011;25147;52.142;9.960;2023-03-26T01:00:05;9.23;;;3.85;;
39442;SDS011;25147;52.142;9.960;2023-03-26T01:02:35;7.97;;;3.30;;
39442;SDS011;25147;52.142;9.960;2023-03-26T01:08:11;6.65;;;3.47;;
39442;SDS011;25147;52.142;9.960;2023-03-26T01:10:43;8.68;;;3.55;;
39442;SDS011;25147;52.142;9.960;2023-03-26T01:13:16;4.93;;;3.78;;
39442;SDS011;25147;52.142;9.960;2023-03-26T01:15:44;9.50;;;3.97;;
39442;SDS011;25147;52.142;9.960;2023-03-26T01:18:14;5.32;;;3.00;;
39442;SDS011;25147;52.142;9.960;2023-03-26T01:20:43;8.00;;;4.05;;
39442;SDS011;25147;52.142;9.960;2023-03-26T01:23:14;6.97;;;3.75;;
39442;SDS011;25147;52.142;9.960;2023-03-26T01:25:49;6.22;;;3.42;;
39442;SDS011;25147;52.142;9.960;2023-03-26T01:28:23;7.85;;;4.03;;
39442;SDS011;25147;52.142;9.960;2023-03-26T01:30:57;3.75;;;2.97;;
39442;SDS011;25147;52.142;9.960;2023-03-26T01:33:35;6.25;;;3.65;;
39442;SDS011;25147;52.142;9.960;2023-03-26T01:36:10;6.18;;;3.50;;
39442;SDS011;25147;52.142;9.960;2023-03-26T01:38:44;6.80;;;3.42;;
39442;SDS011;25147;52.142;9.960;2023-03-26T01:41:19;7.50;;;3.70;;
39442;SDS011;25147;52.142;9.960;2023-03-26T01:43:53;7.20;;;3.40;;
39442;SDS011;25147;52.142;9.960;2023-03-26T01:46:25;6.13;;;3.10;;
39442;SDS011;25147;52.142;9.960;2023-03-26T01:48:54;7.63;;;3.05;;
39442;SDS011;25147;52.142;9.960;2023-03-26T01:51:25;5.32;;;2.75;;
39442;SDS011;25147;52.142;9.960;2023-03-26T01:53:53;7.18;;;2.70;;
39442;SDS011;25147;52.142;9.960;2023-03-26T01:56:24;3.60;;;2.60;;
39442;SDS011;25147;52.142;9.960;2023-03-26T01:59:02;3.67;;;2.22;;
39442;SDS011;25147;52.142;9.960;2023-03-26T02:01:35;4.85;;;2.17;;
39442;SDS011;25147;52.142;9.960;2023-03-26T02:04:10;4.53;;;2.38;;
39442;SDS011;25147;52.142;9.960;2023-03-26T02:06:44;5.70;;;1.80;;
39442;SDS011;25147;52.142;9.960;2023-03-26T02:09:15;7.72;;;1.85;;
39442;SDS011;25147;52.142;9.960;2023-03-26T02:11:47;3.08;;;2.10;;
39442;SDS011;25147;52.142;9.960;2023-03-26T02:14:15;3.67;;;2.20;;
39442;SDS011;25147;52.142;9.960;2023-03-26T02:16:42;5.55;;;2.67;;
39442;SDS011;25147;52.142;9.960;2023-03-26T02:19:10;3.28;;;2.03;;
39442;SDS011;25147;52.142;9.960;2023-03-26T02:21:39;6.53;;;2.72;;
39442;SDS011;25147;52.142;9.960;2023-03-26T02:24:06;10.13;;;2.20;;
39442;SDS011;25147;52.142;9.960;2023-03-26T02:26:34;5.30;;;2.40;;
39442;SDS011;25147;52.142;9.960;2023-03-26T02:29:03;5.00;;;1.98;;
39442;SDS011;25147;52.142;9.960;2023-03-26T02:31:29;7.22;;;1.90;;
39442;SDS011;25147;52.142;9.960;2023-03-26T02:33:57;5.85;;;1.63;;
39442;SDS011;25147;52.142;9.960;2023-03-26T02:36:23;7.60;;;1.75;;
39442;SDS011;25147;52.142;9.960;2023-03-26T02:38:52;4.50;;;1.90;;
39442;SDS011;25147;52.142;9.960;2023-03-26T02:41:18;4.50;;;2.20;;
39442;SDS011;25147;52.142;9.960;2023-03-26T02:43:45;6.20;;;1.60;;
39442;SDS011;25147;52.142;9.960;2023-03-26T02:46:13;4.07;;;1.90;;
39442;SDS011;25147;52.142;9.960;2023-03-26T02:48:40;4.78;;;2.05;;
39442;SDS011;25147;52.142;9.960;2023-03-26T02:51:06;4.93;;;2.38;;
39442;SDS011;25147;52.142;9.960;2023-03-26T02:53:33;3.75;;;1.90;;
39442;SDS011;25147;52.142;9.960;2023-03-26T02:56:01;9.27;;;2.13;;
39442;SDS011;25147;52.142;9.960;2023-03-26T02:58:28;4.53;;;2.35;;
39442;SDS011;25147;52.142;9.960;2023-03-26T03:00:55;4.13;;;2.08;;
39442;SDS011;25147;52.142;9.960;2023-03-26T03:03:23;5.90;;;2.22;;
39442;SDS011;25147;52.142;9.960;2023-03-26T03:05:51;2.70;;;2.13;;
39442;SDS011;25147;52.142;9.960;2023-03-26T03:08:19;5.32;;;2.72;;
39442;SDS011;25147;52.142;9.960;2023-03-26T03:10:54;5.65;;;2.17;;
39442;SDS011;25147;52.142;9.960;2023-03-26T03:13:21;4.38;;;2.97;;
39442;SDS011;25147;52.142;9.960;2023-03-26T03:15:48;5.43;;;2.47;;
39442;SDS011;25147;52.142;9.960;2023-03-26T03:18:14;6.20;;;2.72;;
39442;SDS011;25147;52.142;9.960;2023-03-26T03:20:42;5.88;;;2.53;;
39442;SDS011;25147;52.142;9.960;2023-03-26T03:23:09;6.07;;;2.60;;
39442;SDS011;25147;52.142;9.960;2023-03-26T03:25:36;4.53;;;2.53;;
39442;SDS011;25147;52.142;9.960;2023-03-26T03:28:05;8.13;;;3.28;;
39442;SDS011;25147;52.142;9.960;2023-03-26T03:30:31;3.72;;;2.33;;
39442;SDS011;25147;52.142;9.960;2023-03-26T03:32:58;7.28;;;2.50;;
39442;SDS011;25147;52.142;9.960;2023-03-26T03:35:26;7.63;;;2.92;;
39442;SDS011;25147;52.142;9.960;2023-03-26T03:37:55;10.70;;;2.60;;
39442;SDS011;25147;52.142;9.960;2023-03-26T03:40:21;10.13;;;3.08;;
39442;SDS011;25147;52.142;9.960;2023-03-26T03:42:48;7.32;;;2.90;;
39442;SDS011;25147;52.142;9.960;2023-03-26T03:45:15;7.45;;;2.58;;
39442;SDS011;25147;52.142;9.960;2023-03-26T03:47:42;5.20;;;3.65;;
39442;SDS011;25147;52.142;9.960;2023-03-26T03:50:09;6.75;;;3.83;;
39442;SDS011;25147;52.142;9.960;2023-03-26T03:52:36;7.65;;;3.60;;
39442;SDS011;25147;52.142;9.960;2023-03-26T03:55:04;7.53;;;3.47;;
39442;SDS011;25147;52.142;9.960;2023-03-26T03:57:31;9.07;;;3.28;;
39442;SDS011;25147;52.142;9.960;2023-03-26T03:59:58;7.88;;;4.20;;
39442;SDS011;25147;52.142;9.960;2023-03-26T04:02:25;9.77;;;3.80;;
39442;SDS011;25147;52.142;9.960;2023-03-26T04:04:54;10.88;;;4.13;;
39442;SDS011;25147;52.142;9.960;2023-03-26T04:07:22;6.40;;;4.40;;
39442;SDS011;25147;52.142;9.960;2023-03-26T04:09:49;4.20;;;3.35;;
39442;SDS011;25147;52.142;9.960;2023-03-26T04:12:17;9.45;;;4.30;;
39442;SDS011;25147;52.142;9.960;2023-03-26T04:14:43;9.52;;;4.93;;
39442;SDS011;25147;52.142;9.960;2023-03-26T04:17:10;8.90;;;4.72;;
39442;SDS011;25147;52.142;9.960;2023-03-26T04:19:37;9.65;;;5.47;;
39442;SDS011;25147;52.142;9.960;2023-03-26T04:22:04;11.15;;;5.00;;
39442;SDS011;25147;52.142;9.960;2023-03-26T04:24:31;9.63;;;4.43;;
39442;SDS011;25147;52.142;9.960;2023-03-26T04:27:02;10.88;;;4.95;;
39442;SDS011;25147;52.142;9.960;2023-03-26T04:29:33;9.63;;;4.90;;
39442;SDS011;25147;52.142;9.960;2023-03-26T04:32:07;8.40;;;4.40;;
39442;SDS011;25147;52.142;9.960;2023-03-26T04:34:38;11.43;;;4.72;;
39442;SDS011;25147;52.142;9.960;2023-03-26T04:37:11;7.72;;;3.90;;
39442;SDS011;25147;52.142;9.960;2023-03-26T04:39:45;10.38;;;4.13;;
39442;SDS011;25147;52.142;9.960;2023-03-26T04:42:11;12.65;;;4.45;;
39442;SDS011;25147;52.142;9.960;2023-03-26T04:44:39;8.05;;;5.03;;
39442;SDS011;25147;52.142;9.960;2023-03-26T04:47:06;8.40;;;4.10;;
39442;SDS011;25147;52.142;9.960;2023-03-26T04:49:33;7.15;;;4.28;;
39442;SDS011;25147;52.142;9.960;2023-03-26T04:51:59;10.02;;;4.07;;
39442;SDS011;25147;52.142;9.960;2023-03-26T04:54:26;9.10;;;3.97;;
39442;SDS011;25147;52.142;9.960;2023-03-26T04:56:53;9.13;;;4.00;;
39442;SDS011;25147;52.142;9.960;2023-03-26T04:59:25;9.73;;;4.53;;
39442;SDS011;25147;52.142;9.960;2023-03-26T05:01:55;8.70;;;3.95;;
39442;SDS011;25147;52.142;9.960;2023-03-26T05:04:24;9.52;;;4.30;;
39442;SDS011;25147;52.142;9.960;2023-03-26T05:06:53;9.85;;;4.43;;
39442;SDS011;25147;52.142;9.960;2023-03-26T05:09:20;8.43;;;4.45;;
39442;SDS011;25147;52.142;9.960;2023-03-26T05:11:47;9.38;;;4.55;;
39442;SDS011;25147;52.142;9.960;2023-03-26T05:14:14;10.32;;;4.78;;
39442;SDS011;25147;52.142;9.960;2023-03-26T05:16:41;9.43;;;4.82;;
39442;SDS011;25147;52.142;9.960;2023-03-26T05:19:10;6.97;;;4.47;;
39442;SDS011;25147;52.142;9.960;2023-03-26T05:21:37;9.25;;;4.30;;
39442;SDS011;25147;52.142;9.960;2023-03-26T05:24:03;8.02;;;4.45;;
39442;SDS011;25147;52.142;9.960;2023-03-26T05:26:30;11.30;;;4.65;;
39442;SDS011;25147;52.142;9.960;2023-03-26T05:28:57;8.30;;;4.53;;
39442;SDS011;25147;52.142;9.960;2023-03-26T05:31:24;9.35;;;4.40;;
39442;SDS011;25147;52.142;9.960;2023-03-26T05:33:52;9.52;;;4.50;;
39442;SDS011;25147;52.142;9.960;2023-03-26T05:36:20;9.85;;;4.53;;
39442;SDS011;25147;52.142;9.960;2023-03-26T05:38:46;9.13;;;4.47;;
39442;SDS011;25147;52.142;9.960;2023-03-26T05:41:14;11.77;;;4.93;;
39442;SDS011;25147;52.142;9.960;2023-03-26T05:43:41;10.50;;;4.95;;
39442;SDS011;25147;52.142;9.960;2023-03-26T05:46:08;10.13;;;4.72;;
39442;SDS011;25147;52.142;9.960;2023-03-26T05:48:35;8.40;;;4.78;;
39442;SDS011;25147;52.142;9.960;2023-03-26T05:51:03;9.75;;;4.78;;
39442;SDS011;25147;52.142;9.960;2023-03-26T05:53:32;9.57;;;4.70;;
39442;SDS011;25147;52.142;9.960;2023-03-26T05:56:00;10.95;;;5.25;;
39442;SDS011;25147;52.142;9.960;2023-03-26T05:58:27;11.35;;;6.07;;
39442;SDS011;25147;52.142;9.960;2023-03-26T06:00:57;9.30;;;5.35;;
39442;SDS011;25147;52.142;9.960;2023-03-26T06:03:26;12.48;;;5.25;;
39442;SDS011;25147;52.142;9.960;2023-03-26T06:05:53;8.90;;;5.47;;
39442;SDS011;25147;52.142;9.960;2023-03-26T06:08:20;12.13;;;5.47;;
39442;SDS011;25147;52.142;9.960;2023-03-26T06:10:48;12.07;;;5.25;;
39442;SDS011;25147;52.142;9.960;2023-03-26T06:13:15;9.60;;;5.05;;
39442;SDS011;25147;52.142;9.960;2023-03-26T06:15:43;12.27;;;5.90;;
39442;SDS011;25147;52.142;9.960;2023-03-26T06:18:10;11.98;;;5.47;;
39442;SDS011;25147;52.142;9.960;2023-03-26T06:20:36;10.25;;;5.53;;
39442;SDS011;25147;52.142;9.960;2023-03-26T06:23:03;9.68;;;5.32;;
39442;SDS011;25147;52.142;9.960;2023-03-26T06:25:29;12.63;;;5.00;;
39442;SDS011;25147;52.142;9.960;2023-03-26T06:27:57;9.18;;;5.10;;
39442;SDS011;25147;52.142;9.960;2023-03-26T06:30:23;7.80;;;5.25;;
39442;SDS011;25147;52.142;9.960;2023-03-26T06:32:50;9.55;;;5.93;;
39442;SDS011;25147;52.142;9.960;2023-03-26T06:35:17;11.48;;;5.55;;
39442;SDS011;25147;52.142;9.960;2023-03-26T06:37:43;11.57;;;5.07;;
39442;SDS011;25147;52.142;9.960;2023-03-26T06:40:10;11.43;;;5.65;;
39442;SDS011;25147;52.142;9.960;2023-03-26T06:42:37;11.65;;;5.13;;
39442;SDS011;25147;52.142;9.960;2023-03-26T06:45:06;8.85;;;5.00;;
39442;SDS011;25147;52.142;9.960;2023-03-26T06:47:33;7.28;;;4.95;;
39442;SDS011;25147;52.142;9.960;2023-03-26T06:50:00;12.27;;;5.05;;
39442;SDS011;25147;52.142;9.960;2023-03-26T06:52:26;14.95;;;5.70;;
39442;SDS011;25147;52.142;9.960;2023-03-26T06:54:53;11.70;;;5.53;;
39442;SDS011;25147;52.142;9.960;2023-03-26T06:57:20;10.13;;;5.22;;
39442;SDS011;25147;52.142;9.960;2023-03-26T06:59:46;10.65;;;6.03;;
39442;SDS011;25147;52.142;9.960;2023-03-26T07:02:14;12.45;;;5.53;;
39442;SDS011;25147;52.142;9.960;2023-03-26T07:04:41;12.93;;;4.55;;
39442;SDS011;25147;52.142;9.960;2023-03-26T07:07:07;11.98;;;5.13;;
39442;SDS011;25147;52.142;9.960;2023-03-26T07:09:34;9.82;;;5.25;;
39442;SDS011;25147;52.142;9.960;2023-03-26T07:12:01;9.50;;;4.80;;
39442;SDS011;25147;52.142;9.960;2023-03-26T07:14:29;8.60;;;4.65;;
39442;SDS011;25147;52.142;9.960;2023-03-26T07:16:56;8.80;;;5.50;;
39442;SDS011;25147;52.142;9.960;2023-03-26T07:19:24;8.27;;;4.40;;
39442;SDS011;25147;52.142;9.960;2023-03-26T07:21:51;12.90;;;4.68;;
39442;SDS011;25147;52.142;9.960;2023-03-26T07:24:18;6.53;;;4.78;;
39442;SDS011;25147;52.142;9.960;2023-03-26T07:26:50;12.68;;;4.93;;
39442;SDS011;25147;52.142;9.960;2023-03-26T07:29:23;10.40;;;4.78;;
39442;SDS011;25147;52.142;9.960;2023-03-26T07:31:57;6.50;;;4.00;;
39442;SDS011;25147;52.142;9.960;2023-03-26T07:34:36;7.65;;;4.13;;
39442;SDS011;25147;52.142;9.960;2023-03-26T07:37:14;7.20;;;4.15;;
39442;SDS011;25147;52.142;9.960;2023-03-26T07:39:53;9.93;;;3.97;;
39442;SDS011;25147;52.142;9.960;2023-03-26T07:42:27;5.78;;;3.13;;
39442;SDS011;25147;52.142;9.960;2023-03-26T07:45:08;6.82;;;3.58;;
39442;SDS011;25147;52.142;9.960;2023-03-26T07:47:40;7.80;;;3.92;;
39442;SDS011;25147;52.142;9.960;2023-03-26T07:50:12;7.68;;;3.45;;
39442;SDS011;25147;52.142;9.960;2023-03-26T07:52:40;11.93;;;3.78;;
39442;SDS011;25147;52.142;9.960;2023-03-26T07:55:10;9.20;;;3.50;;
39442;SDS011;25147;52.142;9.960;2023-03-26T07:57:40;5.25;;;3.38;;
39442;SDS011;25147;52.142;9.960;2023-03-26T08:00:18;10.30;;;3.92;;
39442;SDS011;25147;52.142;9.960;2023-03-26T08:03:01;6.45;;;2.92;;
39442;SDS011;25147;52.142;9.960;2023-03-26T08:05:41;6.13;;;3.20;;
39442;SDS011;25147;52.142;9.960;2023-03-26T08:08:17;5.97;;;3.15;;
39442;SDS011;25147;52.142;9.960;2023-03-26T08:10:52;6.03;;;3.30;;
39442;SDS011;25147;52.142;9.960;2023-03-26T08:13:34;5.32;;;3.10;;
39442;SDS011;25147;52.142;9.960;2023-03-26T08:16:18;6.70;;;3.38;;
39442;SDS011;25147;52.142;9.960;2023-03-26T08:18:51;7.53;;;3.58;;
39442;SDS011;25147;52.142;9.960;2023-03-26T08:21:27;8.18;;;2.90;;
39442;SDS011;25147;52.142;9.960;2023-03-26T08:23:59;9.60;;;3.67;;
39442;SDS011;25147;52.142;9.960;2023-03-26T08:26:39;7.43;;;3.03;;
39442;SDS011;25147;52.142;9.960;2023-03-26T08:29:17;10.00;;;3.30;;
39442;SDS011;25147;52.142;9.960;2023-03-26T08:31:51;6.10;;;2.65;;
39442;SDS011;25147;52.142;9.960;2023-03-26T08:34:21;7.60;;;3.13;;
39442;SDS011;25147;52.142;9.960;2023-03-26T08:36:49;6.43;;;3.00;;
39442;SDS011;25147;52.142;9.960;2023-03-26T08:39:16;4.68;;;3.10;;
39442;SDS011;25147;52.142;9.960;2023-03-26T08:41:53;6.72;;;3.65;;
39442;SDS011;25147;52.142;9.960;2023-03-26T08:47:54;5.50;;;3.08;;
39442;SDS011;25147;52.142;9.960;2023-03-26T08:50:42;7.53;;;3.75;;
39442;SDS011;25147;52.142;9.960;2023-03-26T08:56:22;5.28;;;2.92;;
39442;SDS011;25147;52.142;9.960;2023-03-26T08:59:04;5.05;;;3.10;;
39442;SDS011;25147;52.142;9.960;2023-03-26T09:01:54;5.68;;;3.20;;
39442;SDS011;25147;52.142;9.960;2023-03-26T09:04:40;4.93;;;2.60;;
39442;SDS011;25147;52.142;9.960;2023-03-26T09:07:31;6.32;;;2.70;;
39442;SDS011;25147;52.142;9.960;2023-03-26T09:10:26;9.60;;;3.38;;
39442;SDS011;25147;52.142;9.960;2023-03-26T09:13:08;8.43;;;3.28;;
39442;SDS011;25147;52.142;9.960;2023-03-26T09:19:01;7.80;;;3.53;;
39442;SDS011;25147;52.142;9.960;2023-03-26T09:21:51;5.05;;;2.65;;
39442;SDS011;25147;52.142;9.960;2023-03-26T09:24:33;6.30;;;2.90;;
39442;SDS011;25147;52.142;9.960;2023-03-26T09:27:20;7.70;;;3.20;;
39442;SDS011;25147;52.142;9.960;2023-03-26T09:33:21;8.02;;;3.40;;
39442;SDS011;25147;52.142;9.960;2023-03-26T09:36:06;7.13;;;3.75;;
39442;SDS011;25147;52.142;9.960;2023-03-26T09:38:44;7.20;;;3.75;;
39442;SDS011;25147;52.142;9.960;2023-03-26T09:41:21;5.05;;;3.42;;
39442;SDS011;25147;52.142;9.960;2023-03-26T09:44:10;6.18;;;3.55;;
39442;SDS011;25147;52.142;9.960;2023-03-26T09:46:57;7.30;;;3.80;;
39442;SDS011;25147;52.142;9.960;2023-03-26T09:49:44;6.43;;;3.47;;
39442;SDS011;25147;52.142;9.960;2023-03-26T09:52:22;8.10;;;3.50;;
39442;SDS011;25147;52.142;9.960;2023-03-26T10:01:15;6.65;;;3.30;;
39442;SDS011;25147;52.142;9.960;2023-03-26T10:03:48;7.55;;;3.60;;
39442;SDS011;25147;52.142;9.960;2023-03-26T10:06:29;6.93;;;3.22;;
39442;SDS011;25147;52.142;9.960;2023-03-26T10:09:05;7.07;;;3.70;;
39442;SDS011;25147;52.142;9.960;2023-03-26T10:11:48;8.45;;;4.55;;
39442;SDS011;25147;52.142;9.960;2023-03-26T10:14:24;7.60;;;3.53;;
39442;SDS011;25147;52.142;9.960;2023-03-26T10:17:01;6.97;;;3.92;;
39442;SDS011;25147;52.142;9.960;2023-03-26T10:22:28;7.43;;;4.45;;
39442;SDS011;25147;52.142;9.960;2023-03-26T10:27:59;9.73;;;4.15;;
39442;SDS011;25147;52.142;9.960;2023-03-26T10:30:42;6.50;;;3.78;;
39442;SDS011;25147;52.142;9.960;2023-03-26T10:33:24;6.97;;;3.80;;
39442;SDS011;25147;52.142;9.960;2023-03-26T10:36:04;9.98;;;5.30;;
39442;SDS011;25147;52.142;9.960;2023-03-26T10:38:50;6.97;;;4.60;;
39442;SDS011;25147;52.142;9.960;2023-03-26T10:41:25;5.15;;;4.25;;
39442;SDS011;25147;52.142;9.960;2023-03-26T10:44:03;6.93;;;3.72;;
39442;SDS011;25147;52.142;9.960;2023-03-26T10:46:50;5.78;;;3.47;;
39442;SDS011;25147;52.142;9.960;2023-03-26T10:49:36;5.57;;;3.45;;
39442;SDS011;25147;52.142;9.960;2023-03-26T10:52:13;7.65;;;4.03;;
39442;SDS011;25147;52.142;9.960;2023-03-26T10:54:47;6.60;;;3.67;;
39442;SDS011;25147;52.142;9.960;2023-03-26T10:57:25;9.20;;;3.45;;
39442;SDS011;25147;52.142;9.960;2023-03-26T11:00:04;8.20;;;3.95;;
39442;SDS011;25147;52.142;9.960;2023-03-26T11:02:40;8.95;;;5.35;;
39442;SDS011;25147;52.142;9.960;2023-03-26T11:05:25;8.77;;;5.05;;
39442;SDS011;25147;52.142;9.960;2023-03-26T11:08:04;5.28;;;4.72;;
39442;SDS011;25147;52.142;9.960;2023-03-26T11:10:40;7.55;;;5.30;;
39442;SDS011;25147;52.142;9.960;2023-03-26T11:13:14;9.63;;;5.22;;
39442;SDS011;25147;52.142;9.960;2023-03-26T11:15:48;13.63;;;5.13;;
39442;SDS011;25147;52.142;9.960;2023-03-26T11:18:21;11.23;;;4.68;;
39442;SDS011;25147;52.142;9.960;2023-03-26T11:21:00;11.23;;;4.88;;
39442;SDS011;25147;52.142;9.960;2023-03-26T11:23:33;6.55;;;3.90;;
39442;SDS011;25147;52.142;9.960;2023-03-26T11:26:09;8.63;;;4.30;;
39442;SDS011;25147;52.142;9.960;2023-03-26T11:28:48;6.90;;;4.75;;
39442;SDS011;25147;52.142;9.960;2023-03-26T11:31:26;9.95;;;4.57;;
39442;SDS011;25147;52.142;9.960;2023-03-26T11:34:05;8.07;;;4.80;;
39442;SDS011;25147;52.142;9.960;2023-03-26T11:36:42;7.97;;;4.78;;
39442;SDS011;25147;52.142;9.960;2023-03-26T11:39:12;6.95;;;4.70;;
39442;SDS011;25147;52.142;9.960;2023-03-26T11:41:44;7.50;;;4.10;;
39442;SDS011;25147;52.142;9.960;2023-03-26T11:44:14;8.35;;;4.10;;
39442;SDS011;25147;52.142;9.960;2023-03-26T11:46:47;6.55;;;3.70;;
39442;SDS011;25147;52.142;9.960;2023-03-26T11:49:17;7.95;;;3.90;;
39442;SDS011;25147;52.142;9.960;2023-03-26T11:51:48;5.93;;;4.00;;
39442;SDS011;25147;52.142;9.960;2023-03-26T11:54:15;5.43;;;3.75;;
39442;SDS011;25147;52.142;9.960;2023-03-26T11:56:42;6.65;;;3.83;;
39442;SDS011;25147;52.142;9.960;2023-03-26T11:59:13;6.72;;;4.55;;
39442;SDS011;25147;52.142;9.960;2023-03-26T12:01:46;8.13;;;4.55;;
39442;SDS011;25147;52.142;9.960;2023-03-26T12:04:15;8.43;;;4.10;;
39442;SDS011;25147;52.142;9.960;2023-03-26T12:06:51;13.65;;;4.10;;
39442;SDS011;25147;52.142;9.960;2023-03-26T12:09:20;5.47;;;4.03;;
39442;SDS011;25147;52.142;9.960;2023-03-26T12:11:48;6.25;;;3.95;;
39442;SDS011;25147;52.142;9.960;2023-03-26T12:14:20;7.22;;;4.13;;
39442;SDS011;25147;52.142;9.960;2023-03-26T12:16:55;8.50;;;3.95;;
39442;SDS011;25147;52.142;9.960;2023-03-26T12:19:23;8.52;;;3.90;;
39442;SDS011;25147;52.142;9.960;2023-03-26T12:21:54;8.60;;;3.65;;
39442;SDS011;25147;52.142;9.960;2023-03-26T12:24:24;5.30;;;3.63;;
39442;SDS011;25147;52.142;9.960;2023-03-26T12:26:55;4.88;;;3.40;;
39442;SDS011;25147;52.142;9.960;2023-03-26T12:29:26;7.82;;;3.70;;
39442;SDS011;25147;52.142;9.960;2023-03-26T12:31:54;9.43;;;3.85;;
39442;SDS011;25147;52.142;9.960;2023-03-26T12:34:22;7.40;;;4.05;;
39442;SDS011;25147;52.142;9.960;2023-03-26T12:36:56;10.02;;;4.25;;
39442;SDS011;25147;52.142;9.960;2023-03-26T12:39:26;6.43;;;3.85;;
39442;SDS011;25147;52.142;9.960;2023-03-26T12:41:55;6.75;;;3.65;;
39442;SDS011;25147;52.142;9.960;2023-03-26T12:44:24;8.60;;;3.90;;
39442;SDS011;25147;52.142;9.960;2023-03-26T12:47:05;7.28;;;3.60;;
39442;SDS011;25147;52.142;9.960;2023-03-26T12:49:39;8.00;;;3.60;;
39442;SDS011;25147;52.142;9.960;2023-03-26T12:52:16;9.52;;;4.05;;
39442;SDS011;25147;52.142;9.960;2023-03-26T12:55:02;7.45;;;3.85;;
39442;SDS011;25147;52.142;9.960;2023-03-26T12:57:40;6.55;;;4.07;;
39442;SDS011;25147;52.142;9.960;2023-03-26T13:00:21;6.57;;;4.97;;
39442;SDS011;25147;52.142;9.960;2023-03-26T13:03:02;10.00;;;5.47;;
39442;SDS011;25147;52.142;9.960;2023-03-26T13:05:46;7.78;;;5.00;;
39442;SDS011;25147;52.142;9.960;2023-03-26T13:11:29;7.10;;;4.53;;
39442;SDS011;25147;52.142;9.960;2023-03-26T13:14:14;6.85;;;4.55;;
39442;SDS011;25147;52.142;9.960;2023-03-26T13:16:58;5.88;;;3.88;;
39442;SDS011;25147;52.142;9.960;2023-03-26T13:19:45;4.47;;;3.47;;
39442;SDS011;25147;52.142;9.960;2023-03-26T13:22:24;5.65;;;3.10;;
39442;SDS011;25147;52.142;9.960;2023-03-26T13:25:00;5.15;;;2.88;;
39442;SDS011;25147;52.142;9.960;2023-03-26T13:27:40;4.30;;;2.60;;
39442;SDS011;25147;52.142;9.960;2023-03-26T13:30:19;3.05;;;2.30;;
39442;SDS011;25147;52.142;9.960;2023-03-26T13:32:54;2.67;;;2.40;;
39442;SDS011;25147;52.142;9.960;2023-03-26T13:35:30;4.82;;;2.90;;
39442;SDS011;25147;52.142;9.960;2023-03-26T13:38:02;4.10;;;2.78;;
39442;SDS011;25147;52.142;9.960;2023-03-26T13:40:40;3.40;;;2.40;;
39442;SDS011;25147;52.142;9.960;2023-03-26T13:43:18;3.95;;;2.75;;
39442;SDS011;25147;52.142;9.960;2023-03-26T13:45:55;4.82;;;2.55;;
39442;SDS011;25147;52.142;9.960;2023-03-26T13:48:27;3.28;;;2.50;;
39442;SDS011;25147;52.142;9.960;2023-03-26T13:51:01;3.42;;;1.83;;
39442;SDS011;25147;52.142;9.960;2023-03-26T13:53:35;2.78;;;2.00;;
39442;SDS011;25147;52.142;9.960;2023-03-26T13:56:10;2.85;;;2.00;;
39442;SDS011;25147;52.142;9.960;2023-03-26T13:58:42;2.10;;;1.90;;
39442;SDS011;25147;52.142;9.960;2023-03-26T14:01:16;2.20;;;1.88;;
39442;SDS011;25147;52.142;9.960;2023-03-26T14:03:48;3.53;;;3.30;;
39442;SDS011;25147;52.142;9.960;2023-03-26T14:06:27;2.17;;;1.80;;
39442;SDS011;25147;52.142;9.960;2023-03-26T14:09:06;3.60;;;2.40;;
39442;SDS011;25147;52.142;9.960;2023-03-26T14:11:47;3.53;;;2.10;;
39442;SDS011;25147;52.142;9.960;2023-03-26T14:14:24;2.47;;;1.95;;
39442;SDS011;25147;52.142;9.960;2023-03-26T14:16:58;3.38;;;1.67;;
39442;SDS011;25147;52.142;9.960;2023-03-26T14:19:36;2.75;;;2.33;;
39442;SDS011;25147;52.142;9.960;2023-03-26T14:22:16;2.80;;;2.13;;
39442;SDS011;25147;52.142;9.960;2023-03-26T14:24:52;3.00;;;2.53;;
39442;SDS011;25147;52.142;9.960;2023-03-26T14:27:39;4.38;;;2.33;;
39442;SDS011;25147;52.142;9.960;2023-03-26T14:33:19;2.42;;;2.17;;
39442;SDS011;25147;52.142;9.960;2023-03-26T14:36:00;5.07;;;2.80;;
39442;SDS011;25147;52.142;9.960;2023-03-26T14:41:49;2.78;;;2.58;;
39442;SDS011;25147;52.142;9.960;2023-03-26T14:44:44;4.07;;;2.80;;
39442;SDS011;25147;52.142;9.960;2023-03-26T14:47:43;3.72;;;2.47;;
39442;SDS011;25147;52.142;9.960;2023-03-26T14:50:27;3.45;;;2.40;;
39442;SDS011;25147;52.142;9.960;2023-03-26T14:53:09;2.30;;;2.10;;
39442;SDS011;25147;52.142;9.960;2023-03-26T14:55:45;2.85;;;2.28;;
39442;SDS011;25147;52.142;9.960;2023-03-26T14:58:34;3.85;;;2.67;;
39442;SDS011;25147;52.142;9.960;2023-03-26T15:01:20;2.47;;;2.28;;
39442;SDS011;25147;52.142;9.960;2023-03-26T15:07:04;4.07;;;2.88;;
39442;SDS011;25147;52.142;9.960;2023-03-26T15:10:10;3.50;;;2.78;;
39442;SDS011;25147;52.142;9.960;2023-03-26T15:12:47;4.72;;;3.03;;
39442;SDS011;25147;52.142;9.960;2023-03-26T15:19:00;3.20;;;2.90;;
39442;SDS011;25147;52.142;9.960;2023-03-26T15:21:59;2.95;;;2.60;;
39442;SDS011;25147;52.142;9.960;2023-03-26T15:24:49;3.95;;;2.83;;
39442;SDS011;25147;52.142;9.960;2023-03-26T15:36:40;3.70;;;2.15;;
39442;SDS011;25147;52.142;9.960;2023-03-26T15:42:20;3.45;;;1.85;;
39442;SDS011;25147;52.142;9.960;2023-03-26T15:44:56;2.53;;;2.33;;
39442;SDS011;25147;52.142;9.960;2023-03-26T15:47:46;3.25;;;2.25;;
39442;SDS011;25147;52.142;9.960;2023-03-26T15:50:31;3.28;;;2.10;;
39442;SDS011;25147;52.142;9.960;2023-03-26T15:53:11;2.13;;;1.83;;
39442;SDS011;25147;52.142;9.960;2023-03-26T15:55:52;3.40;;;2.00;;
39442;SDS011;25147;52.142;9.960;2023-03-26T15:58:29;4.72;;;2.10;;
39442;SDS011;25147;52.142;9.960;2023-03-26T16:01:05;2.85;;;2.00;;
39442;SDS011;25147;52.142;9.960;2023-03-26T16:03:46;2.67;;;2.10;;
39442;SDS011;25147;52.142;9.960;2023-03-26T16:06:29;4.03;;;2.15;;
39442;SDS011;25147;52.142;9.960;2023-03-26T16:09:09;3.67;;;2.35;;
39442;SDS011;25147;52.142;9.960;2023-03-26T16:11:52;4.97;;;2.50;;
39442;SDS011;25147;52.142;9.960;2023-03-26T16:14:22;3.28;;;2.65;;
39442;SDS011;25147;52.142;9.960;2023-03-26T16:16:50;3.83;;;2.90;;